Time;durP1;ratioP1;P1;durP2;ratioP2;P2;SDS_P1;SDS_P2;PMS_P1;PMS_P2;Temp;Humidity;BMP_temperature;BMP_pressure;BME280_temperature;BME280_humidity;BME280_pressure;Samples;Min_cycle;Max_cycle;Signal;HPM_P1;HPM_P2
2022/02/09 00:04:21;;;;;;;4.07;1.73;;;2.80;75.70;;;;;;5039679;28;20180;-84
2022/02/09 00:09:18;;;;;;;4.57;1.90;;;2.80;76.50;;;;;;5018473;28;20022;-84
2022/02/09 00:14:21;;;;;;;3.40;1.45;;;2.70;77.00;;;;;;5030341;28;20108;-83
2022/02/09 00:19:48;;;;;;;3.45;1.77;;;2.70;77.70;;;;;;5045082;28;20036;-84
2022/02/09 01:12:33;;;;;;;2.38;1.30;;;2.40;85.50;;;;;;5062390;28;20036;-77
2022/02/09 01:33:11;;;;;;;1.88;1.00;;;2.30;86.80;;;;;;5047892;28;20036;-77
2022/02/09 01:55:41;;;;;;;2.08;1.20;;;2.50;90.90;;;;;;5038246;28;20239;-78
2022/02/09 01:58:06;;;;;;;2.33;1.30;;;2.50;91.00;;;;;;5037357;28;20025;-80
2022/02/09 02:00:33;;;;;;;1.50;1.17;;;2.60;91.10;;;;;;5044488;28;20022;-78
2022/02/09 02:02:59;;;;;;;1.58;0.98;;;2.60;91.30;;;;;;5051676;28;20022;-79
2022/02/09 02:05:25;;;;;;;1.85;1.15;;;2.70;91.10;;;;;;5043019;28;20088;-79
2022/02/09 02:07:55;;;;;;;1.42;0.95;;;2.70;91.00;;;;;;5042633;28;20104;-77
2022/02/09 02:18:24;;;;;;;1.83;1.23;;;3.00;90.80;;;;;;5040611;28;20040;-79
2022/02/09 02:26:24;;;;;;;3.30;1.38;;;3.20;90.50;;;;;;5039675;28;20036;-78
2022/02/09 02:29:08;;;;;;;1.38;1.02;;;3.20;90.40;;;;;;5039546;28;20085;-80
2022/02/09 02:32:44;;;;;;;2.03;1.25;;;3.30;90.30;;;;;;5044046;28;20037;-79
2022/02/09 02:37:19;;;;;;;2.25;1.05;;;3.40;90.20;;;;;;5049046;28;20486;-78
2022/02/09 03:14:48;;;;;;;2.00;1.20;;;3.30;90.50;;;;;;5047787;28;20021;-78
2022/02/09 03:17:20;;;;;;;1.25;1.15;;;3.20;90.50;;;;;;5041026;28;20025;-78
2022/02/09 03:20:07;;;;;;;1.23;1.13;;;3.20;90.60;;;;;;5023221;28;20044;-78
2022/02/09 03:22:52;;;;;;;1.15;1.05;;;3.30;90.60;;;;;;5042507;28;20108;-77
2022/02/09 03:44:46;;;;;;;2.17;1.10;;;3.20;90.90;;;;;;5042065;28;20040;-78
2022/02/09 03:57:41;;;;;;;3.00;1.00;;;2.90;91.30;;;;;;5040124;28;20025;-77
2022/02/09 04:00:08;;;;;;;1.25;0.90;;;3.00;91.70;;;;;;5041615;28;20025;-78
2022/02/09 04:02:33;;;;;;;1.40;1.00;;;3.00;91.50;;;;;;5041693;28;20123;-77
2022/02/09 04:04:59;;;;;;;0.98;0.88;;;3.00;91.50;;;;;;5047911;28;20033;-79
2022/02/09 04:07:25;;;;;;;0.70;0.68;;;3.00;91.40;;;;;;5041444;28;20037;-78
2022/02/09 04:09:55;;;;;;;1.27;0.90;;;3.00;91.50;;;;;;5039430;28;20032;-77
2022/02/09 04:15:18;;;;;;;1.98;0.70;;;3.00;91.50;;;;;;5039403;28;20017;-78
2022/02/09 04:22:34;;;;;;;1.42;0.75;;;2.80;91.60;;;;;;5030053;28;20029;-78
2022/02/09 04:39:35;;;;;;;1.40;0.50;;;2.20;93.10;;;;;;5070359;28;20033;-78
2022/02/09 04:52:51;;;;;;;1.85;0.88;;;2.10;94.10;;;;;;5043015;28;20030;-77
2022/02/09 04:58:15;;;;;;;1.55;1.00;;;2.00;94.40;;;;;;5038891;28;20497;-77
2022/02/09 05:00:53;;;;;;;3.25;1.27;;;2.00;94.40;;;;;;5038547;28;20500;-78
2022/02/09 05:20:10;;;;;;;1.67;0.82;;;1.80;95.30;;;;;;5041180;28;20040;-79
2022/02/09 05:22:56;;;;;;;1.42;0.80;;;1.70;95.40;;;;;;5041968;28;20505;-80
2022/02/09 05:30:29;;;;;;;2.03;0.98;;;1.70;95.90;;;;;;5039279;28;20621;-80
2022/02/09 05:32:55;;;;;;;1.02;0.70;;;1.70;96.00;;;;;;5039308;28;20045;-80
2022/02/09 05:35:22;;;;;;;1.42;0.90;;;1.70;96.10;;;;;;5032422;28;20033;-81
2022/02/09 05:37:52;;;;;;;1.60;0.70;;;1.70;96.20;;;;;;5049480;28;20343;-79
2022/02/09 05:40:19;;;;;;;1.20;0.70;;;1.60;96.30;;;;;;5040884;28;20026;-78
2022/02/09 05:42:45;;;;;;;1.48;0.70;;;1.60;96.40;;;;;;5040465;28;20470;-80
2022/02/09 05:45:15;;;;;;;1.40;0.90;;;1.60;96.60;;;;;;5039796;28;20087;-80
2022/02/09 05:50:56;;;;;;;2.35;1.00;;;1.60;96.70;;;;;;5039757;28;20028;-79
2022/02/09 05:53:16;;;;;;;0.98;0.70;;;1.60;96.90;;;;;;5031093;28;20056;-79
2022/02/09 05:55:51;;;;;;;1.10;0.80;;;1.60;97.00;;;;;;5038386;28;20036;-78
2022/02/09 06:00:51;;;;;;;1.77;0.75;;;1.60;97.20;;;;;;5038547;28;20022;-79
2022/02/09 06:03:17;;;;;;;2.33;0.82;;;1.50;97.20;;;;;;5041192;28;20026;-79
2022/02/09 06:05:44;;;;;;;2.38;1.20;;;1.60;97.30;;;;;;5053222;28;20139;-79
2022/02/09 06:08:10;;;;;;;2.50;0.88;;;1.50;97.40;;;;;;5064704;28;20017;-79
2022/02/09 06:10:36;;;;;;;1.08;0.77;;;1.50;97.40;;;;;;5064101;28;20029;-79
2022/02/09 06:20:57;;;;;;;1.52;0.90;;;1.50;97.80;;;;;;5063215;28;20037;-80
2022/02/09 06:23:24;;;;;;;1.42;0.75;;;1.50;97.80;;;;;;5061858;28;20048;-79
2022/02/09 06:25:49;;;;;;;1.85;0.98;;;1.50;97.70;;;;;;5062066;28;20028;-79
2022/02/09 06:28:15;;;;;;;0.75;0.73;;;1.50;97.70;;;;;;5060563;28;20025;-79
2022/02/09 06:30:41;;;;;;;1.50;0.70;;;1.50;97.90;;;;;;5044355;28;20025;-80
2022/02/09 06:33:07;;;;;;;1.10;0.80;;;1.50;97.90;;;;;;5060577;28;20320;-80
2022/02/09 06:35:33;;;;;;;1.80;0.85;;;1.50;97.80;;;;;;5034675;28;20026;-80
2022/02/09 06:38:00;;;;;;;1.63;0.80;;;1.50;97.90;;;;;;5041668;28;20025;-78
2022/02/09 06:40:27;;;;;;;1.85;0.80;;;1.60;98.10;;;;;;5044004;28;20028;-78
2022/02/09 06:42:53;;;;;;;1.65;0.90;;;1.60;97.80;;;;;;5042162;28;20477;-79
2022/02/09 06:45:22;;;;;;;1.77;0.82;;;1.60;97.70;;;;;;5040461;28;20037;-79
2022/02/09 06:47:51;;;;;;;1.15;0.90;;;1.60;97.60;;;;;;5042238;28;20026;-79
2022/02/09 06:52:47;;;;;;;1.10;0.73;;;1.70;97.50;;;;;;5043222;28;20081;-79
2022/02/09 06:55:19;;;;;;;4.40;1.67;;;1.70;97.30;;;;;;5029024;28;20032;-80
2022/02/09 07:00:19;;;;;;;8.05;4.57;;;1.80;97.20;;;;;;5049434;28;20022;-80
2022/02/09 07:02:45;;;;;;;8.25;4.28;;;1.90;97.10;;;;;;5040516;28;20029;-79
2022/02/09 07:05:12;;;;;;;6.07;3.40;;;1.90;97.10;;;;;;5080303;22;20062;-81
2022/02/09 07:07:41;;;;;;;4.05;2.70;;;1.90;97.00;;;;;;5057740;28;20047;-80
2022/02/09 07:10:12;;;;;;;4.65;3.25;;;1.90;97.00;;;;;;5057338;28;20100;-83
2022/02/09 07:12:41;;;;;;;6.40;1.80;;;1.90;97.00;;;;;;5039235;28;20017;-82
2022/02/09 07:15:11;;;;;;;3.83;1.98;;;2.00;96.80;;;;;;5040218;28;20412;-82
2022/02/09 07:17:41;;;;;;;3.83;1.55;;;2.00;96.70;;;;;;5059451;28;20584;-82
2022/02/09 07:20:14;;;;;;;3.13;1.67;;;2.10;96.70;;;;;;5061777;28;20444;-81
2022/02/09 07:22:40;;;;;;;2.45;1.42;;;2.10;96.50;;;;;;5061633;28;20032;-81
2022/02/09 07:25:16;;;;;;;1.73;1.30;;;2.20;96.40;;;;;;5062924;28;20029;-81
2022/02/09 07:27:53;;;;;;;1.77;1.20;;;2.20;96.20;;;;;;5061164;28;20108;-80
2022/02/09 07:30:22;;;;;;;3.00;1.13;;;2.30;96.10;;;;;;5044517;28;20021;-82
2022/02/09 07:32:56;;;;;;;2.45;1.30;;;2.30;96.00;;;;;;5044336;28;20028;-81
2022/02/09 07:35:22;;;;;;;2.40;1.80;;;2.40;95.90;;;;;;5062002;28;20057;-81
2022/02/09 07:37:48;;;;;;;3.65;2.40;;;2.50;95.80;;;;;;5064996;28;20048;-83
2022/02/09 07:40:15;;;;;;;3.75;2.58;;;2.50;95.70;;;;;;5068841;28;20028;-83
2022/02/09 07:42:47;;;;;;;2.80;2.35;;;2.60;95.50;;;;;;5058803;28;20026;-83
2022/02/09 07:45:39;;;;;;;2.03;1.77;;;2.70;95.30;;;;;;5020868;28;20025;-82
2022/02/09 07:50:44;;;;;;;2.00;1.70;;;3.30;95.30;;;;;;5042142;28;20045;-82
2022/02/09 07:53:23;;;;;;;1.70;1.50;;;4.10;94.20;;;;;;5040305;28;20026;-80
2022/02/09 07:55:49;;;;;;;2.10;1.40;;;4.90;92.00;;;;;;5036179;28;20021;-81
2022/02/09 07:58:15;;;;;;;2.03;1.40;;;5.00;90.60;;;;;;5049956;28;20036;-83
2022/02/09 08:00:44;;;;;;;2.45;1.30;;;4.80;90.40;;;;;;5064669;28;20032;-82
2022/02/09 08:03:10;;;;;;;1.63;1.40;;;4.70;90.50;;;;;;5060124;28;20032;-84
2022/02/09 08:05:36;;;;;;;2.65;1.08;;;4.60;90.50;;;;;;5054105;28;20029;-82
2022/02/09 08:08:02;;;;;;;2.05;1.17;;;4.70;90.60;;;;;;5065282;28;20025;-83
2022/02/09 08:10:39;;;;;;;1.45;1.05;;;5.50;90.80;;;;;;5063103;28;20100;-84
2022/02/09 08:25:28;;;;;;;1.60;1.00;;;7.00;75.70;;;;;;5047945;28;20085;-81
2022/02/09 08:34:09;;;;;;;1.38;1.00;;;9.60;68.50;;;;;;5049196;28;20013;-82
2022/02/09 08:36:35;;;;;;;1.45;0.95;;;9.10;68.60;;;;;;5063237;28;20021;-83
2022/02/09 08:39:01;;;;;;;2.40;1.30;;;8.70;69.50;;;;;;5042648;28;20025;-83
2022/02/09 08:41:26;;;;;;;2.53;1.33;;;8.40;70.90;;;;;;5047917;28;20112;-81
2022/02/09 08:43:52;;;;;;;2.85;1.20;;;8.20;71.40;;;;;;5068425;28;20063;-80
2022/02/09 08:46:19;;;;;;;2.45;1.58;;;8.10;72.00;;;;;;5068363;28;20097;-82
2022/02/09 08:48:45;;;;;;;2.40;1.60;;;8.10;72.20;;;;;;5038913;28;20044;-82
2022/02/09 08:51:10;;;;;;;3.15;1.63;;;8.10;72.60;;;;;;5047900;28;20028;-82
2022/02/09 08:53:36;;;;;;;9.00;1.60;;;8.00;72.20;;;;;;5047433;28;20037;-83
2022/02/09 08:56:07;;;;;;;3.10;1.63;;;7.90;72.70;;;;;;5045826;28;20029;-83
2022/02/09 08:58:34;;;;;;;6.22;1.52;;;7.80;73.20;;;;;;5043437;28;20025;-82
2022/02/09 09:01:09;;;;;;;3.22;1.40;;;7.70;73.70;;;;;;5027464;28;20034;-82
2022/02/09 09:03:46;;;;;;;3.38;1.98;;;7.60;74.00;;;;;;5017086;28;20087;-83
2022/02/09 09:06:17;;;;;;;2.58;1.92;;;7.70;74.10;;;;;;5054080;28;20033;-82
2022/02/09 09:09:00;;;;;;;4.93;2.00;;;7.70;74.30;;;;;;5049917;28;20022;-81
2022/02/09 09:17:23;;;;;;;6.28;1.88;;;7.60;74.60;;;;;;5023923;28;20052;-82
2022/02/09 10:03:31;;;;;;;3.10;0.82;;;11.70;59.40;;;;;;5048027;28;20057;-82
2022/02/09 10:34:11;;;;;;;2.20;0.90;;;11.10;56.10;;;;;;5054835;28;20017;-83
2022/02/09 10:36:51;;;;;;;1.60;0.85;;;11.10;56.00;;;;;;5025876;28;20114;-84
2022/02/09 10:39:29;;;;;;;2.45;0.70;;;11.10;55.90;;;;;;5018929;28;20093;-84
2022/02/09 10:42:01;;;;;;;1.30;0.47;;;11.20;55.50;;;;;;5018655;28;20030;-84
2022/02/09 10:45:03;;;;;;;1.50;0.60;;;11.10;55.30;;;;;;5015491;28;20033;-84
2022/02/09 10:47:31;;;;;;;2.63;0.90;;;11.20;55.20;;;;;;5016806;28;20045;-84
2022/02/09 10:50:35;;;;;;;2.03;1.10;;;11.30;53.50;;;;;;5031783;28;20022;-84
2022/02/09 10:53:04;;;;;;;1.25;0.90;;;11.20;52.90;;;;;;4996648;28;20394;-84
2022/02/09 10:55:39;;;;;;;1.60;1.30;;;11.20;53.30;;;;;;5022913;28;20026;-84
2022/02/09 10:58:08;;;;;;;1.38;0.88;;;11.10;53.20;;;;;;5035946;28;20025;-83
2022/02/09 11:00:34;;;;;;;2.05;1.23;;;11.10;53.30;;;;;;5035764;28;20052;-84
2022/02/09 11:03:00;;;;;;;1.15;1.00;;;11.20;52.90;;;;;;5036581;28;20025;-83
2022/02/09 11:05:26;;;;;;;2.38;1.20;;;11.20;53.10;;;;;;5057212;28;20037;-84
2022/02/09 11:07:54;;;;;;;1.30;1.00;;;11.20;53.60;;;;;;5027958;28;20053;-84
2022/02/09 11:10:21;;;;;;;3.50;1.00;;;11.20;53.60;;;;;;5035451;28;20029;-83
2022/02/09 11:12:50;;;;;;;1.85;1.00;;;11.20;53.90;;;;;;5035901;28;20037;-83
2022/02/09 11:15:18;;;;;;;1.98;1.08;;;11.20;54.40;;;;;;5018410;28;20471;-83
2022/02/09 11:17:47;;;;;;;1.73;1.38;;;11.20;54.20;;;;;;5024932;28;20021;-83
2022/02/09 11:20:17;;;;;;;1.13;1.05;;;11.20;54.70;;;;;;5039006;28;20033;-83
2022/02/09 11:22:44;;;;;;;2.03;0.90;;;11.20;54.60;;;;;;5038455;28;20081;-82
2022/02/09 11:25:53;;;;;;;2.45;0.98;;;11.30;54.80;;;;;;5036869;28;20087;-82
2022/02/09 11:28:24;;;;;;;1.48;0.93;;;11.40;54.60;;;;;;5038611;28;20041;-83
2022/02/09 11:31:15;;;;;;;;;;;11.40;54.60;;;;;;5038812;28;20029;-83
2022/02/09 11:34:00;;;;;;;1.95;0.93;;;11.50;54.50;;;;;;5060349;28;19901;-83
2022/02/09 11:39:13;;;;;;;1.27;0.93;;;11.40;54.20;;;;;;5051784;28;20097;-82
2022/02/09 11:41:54;;;;;;;0.85;0.68;;;11.40;54.30;;;;;;5019542;28;20021;-82
2022/02/09 11:45:01;;;;;;;3.00;1.17;;;11.50;54.30;;;;;;5019393;28;20025;-83
2022/02/09 11:48:37;;;;;;;1.15;0.98;;;11.60;54.20;;;;;;5022068;28;20096;-82
2022/02/09 12:10:11;;;;;;;0.93;0.70;;;12.40;52.20;;;;;;5033249;28;20063;-81
2022/02/09 12:12:57;;;;;;;4.85;1.00;;;12.50;51.20;;;;;;5032902;28;20052;-82
2022/02/09 12:18:27;;;;;;;1.02;0.70;;;12.50;50.80;;;;;;5047050;28;20029;-82
2022/02/09 12:21:15;;;;;;;2.25;0.60;;;12.40;51.60;;;;;;5052434;28;20013;-83
2022/02/09 12:23:44;;;;;;;0.57;0.50;;;12.40;52.30;;;;;;5034213;28;20021;-82
2022/02/09 12:26:12;;;;;;;0.60;0.57;;;12.40;52.60;;;;;;5049198;28;20034;-81
2022/02/09 12:28:40;;;;;;;1.08;0.68;;;12.30;52.70;;;;;;5062438;28;20095;-82
2022/02/09 12:31:12;;;;;;;2.08;1.20;;;12.30;52.90;;;;;;5073018;28;20041;-83
2022/02/09 12:33:50;;;;;;;3.35;0.98;;;12.30;53.30;;;;;;5056779;28;20048;-82
2022/02/09 12:36:20;;;;;;;1.33;0.65;;;12.50;53.30;;;;;;5068389;28;20032;-83
2022/02/09 12:38:47;;;;;;;0.80;0.63;;;12.90;53.30;;;;;;5053470;28;20491;-82
2022/02/09 12:41:19;;;;;;;0.95;0.50;;;13.20;52.50;;;;;;5072885;28;20013;-83
2022/02/09 12:43:50;;;;;;;0.97;0.50;;;13.40;51.90;;;;;;5054072;28;20036;-82
2022/02/09 12:46:25;;;;;;;1.05;0.40;;;13.40;52.00;;;;;;5028338;28;20025;-82
2022/02/09 12:48:51;;;;;;;1.48;0.63;;;13.20;52.40;;;;;;5026385;28;20025;-83
2022/02/09 12:51:29;;;;;;;1.27;0.60;;;13.00;52.60;;;;;;5008797;28;20109;-82
2022/02/09 12:53:56;;;;;;;1.50;0.63;;;12.90;53.40;;;;;;5030834;28;20085;-81
2022/02/09 12:56:31;;;;;;;1.35;0.70;;;12.80;53.80;;;;;;5030666;28;20256;-83
2022/02/09 12:59:05;;;;;;;2.25;0.60;;;12.80;54.30;;;;;;5026167;28;20021;-83
2022/02/09 13:01:53;;;;;;;1.63;0.60;;;12.80;54.70;;;;;;5010593;28;20127;-82
2022/02/09 13:04:32;;;;;;;1.52;0.70;;;12.80;54.60;;;;;;5062553;22;20104;-81
2022/02/09 13:07:00;;;;;;;1.08;0.43;;;12.80;54.50;;;;;;5071612;28;20426;-80
2022/02/09 13:09:27;;;;;;;2.55;0.70;;;12.90;54.20;;;;;;5066130;28;20027;-81
2022/02/09 13:11:53;;;;;;;1.20;0.70;;;12.90;54.40;;;;;;5087060;28;20028;-80
2022/02/09 13:14:29;;;;;;;0.85;0.70;;;12.90;55.20;;;;;;5057501;28;20480;-80
2022/02/09 13:20:15;;;;;;;3.13;0.83;;;12.90;54.80;;;;;;5046299;28;20025;-81
2022/02/09 14:03:17;;;;;;;0.40;0.40;;;13.70;55.10;;;;;;5020722;28;20094;-82
2022/02/09 14:54:59;;;;;;;0.47;0.30;;;12.70;57.80;;;;;;5051930;28;20021;-80
2022/02/09 14:56:56;;;;;;;0.57;0.40;;;12.60;58.20;;;;;;5053170;28;20037;-82
2022/02/09 14:59:48;;;;;;;0.30;0.30;;;12.50;58.80;;;;;;5070896;28;20084;-81
2022/02/09 15:02:15;;;;;;;0.32;0.30;;;12.30;59.10;;;;;;5062573;28;20516;-80
2022/02/09 15:07:42;;;;;;;1.10;0.30;;;12.00;59.80;;;;;;5051291;28;20048;-81
2022/02/09 15:10:19;;;;;;;;;;;11.80;60.30;;;;;;5027197;28;20024;-82
2022/02/09 15:13:26;;;;;;;1.60;0.80;;;11.70;60.80;;;;;;5044128;28;19932;-81
2022/02/09 15:16:12;;;;;;;1.00;0.60;;;11.50;61.20;;;;;;5041541;28;20013;-82
2022/02/09 15:24:06;;;;;;;0.40;0.32;;;11.20;62.40;;;;;;5063429;28;20027;-83
2022/02/09 15:26:34;;;;;;;0.60;0.43;;;11.10;62.70;;;;;;5063220;28;20082;-83
2022/02/09 15:29:00;;;;;;;0.68;0.68;;;11.00;63.00;;;;;;5046497;28;20029;-83
2022/02/09 15:31:41;;;;;;;0.40;0.30;;;10.90;63.30;;;;;;5056065;28;20097;-80
2022/02/09 15:34:17;;;;;;;1.17;0.30;;;10.80;63.50;;;;;;5053098;28;20057;-82
2022/02/09 15:37:35;;;;;;;0.60;0.50;;;10.70;63.70;;;;;;5043565;28;20033;-80
2022/02/09 15:39:34;;;;;;;1.63;0.32;;;10.60;64.10;;;;;;5058231;28;20021;-81
2022/02/09 16:06:29;;;;;;;0.98;0.47;;;10.00;67.20;;;;;;5060857;28;20096;-81
2022/02/09 16:17:27;;;;;;;0.50;0.40;;;9.70;68.00;;;;;;5070135;28;20047;-81
2022/02/09 16:22:24;;;;;;;0.52;0.47;;;9.60;68.70;;;;;;5067798;28;20025;-81
2022/02/09 16:46:22;;;;;;;1.05;0.52;;;9.10;71.10;;;;;;5064012;28;20135;-80
2022/02/09 16:51:21;;;;;;;1.60;0.73;;;9.00;71.30;;;;;;5050532;28;20024;-81
2022/02/09 16:54:10;;;;;;;1.48;0.90;;;9.00;71.50;;;;;;5049677;28;20037;-79
2022/02/09 17:21:07;;;;;;;1.67;1.10;;;8.10;75.00;;;;;;5067902;28;20059;-79
2022/02/09 17:23:33;;;;;;;2.38;1.20;;;8.10;75.50;;;;;;5069798;28;20020;-85
2022/02/09 17:25:59;;;;;;;5.10;1.17;;;8.00;75.80;;;;;;5069030;28;20123;-80
2022/02/09 17:28:26;;;;;;;1.92;0.98;;;7.90;76.10;;;;;;5069290;28;20032;-79
2022/02/09 17:36:11;;;;;;;1.83;1.13;;;7.80;77.20;;;;;;5064689;28;20032;-79
2022/02/09 17:57:41;;;;;;;3.13;1.60;;;7.30;80.30;;;;;;5061194;28;20017;-80
2022/02/09 18:00:16;;;;;;;2.35;1.48;;;7.20;80.60;;;;;;5060442;28;20309;-81
2022/02/09 18:02:54;;;;;;;1.70;1.25;;;7.20;81.00;;;;;;5060958;28;20021;-79
2022/02/09 18:05:30;;;;;;;3.97;1.98;;;7.20;81.30;;;;;;5060799;28;20036;-80
2022/02/09 18:08:00;;;;;;;4.07;1.92;;;7.10;81.60;;;;;;5062248;28;20048;-79
2022/02/09 18:13:19;;;;;;;4.50;2.13;;;7.10;82.40;;;;;;5059876;28;20064;-81
2022/02/09 18:30:11;;;;;;;4.90;2.47;;;6.90;84.70;;;;;;5088735;28;20024;-81
2022/02/09 19:20:08;;;;;;;7.28;4.00;;;6.00;91.00;;;;;;5059284;28;20107;-83
2022/02/09 19:30:52;;;;;;;6.90;3.92;;;5.80;91.60;;;;;;5054337;28;20063;-81
2022/02/09 19:47:13;;;;;;;7.13;3.70;;;5.60;92.10;;;;;;5060299;28;20094;-83
2022/02/09 19:57:05;;;;;;;7.30;3.95;;;5.50;92.30;;;;;;5055274;28;20362;-82
2022/02/09 19:59:34;;;;;;;7.28;3.92;;;5.40;92.30;;;;;;5053733;28;20028;-81
2022/02/09 20:02:00;;;;;;;6.13;3.78;;;5.50;92.20;;;;;;5048644;28;20098;-81
2022/02/09 20:04:25;;;;;;;6.43;3.13;;;5.40;92.00;;;;;;5041359;28;20032;-82
2022/02/09 20:06:51;;;;;;;6.32;3.40;;;5.40;91.80;;;;;;5044018;28;20048;-80
2022/02/09 20:09:18;;;;;;;4.50;2.78;;;5.40;91.70;;;;;;5061999;28;20082;-82
2022/02/09 20:11:44;;;;;;;6.63;3.28;;;5.40;91.60;;;;;;5057423;28;20049;-82
2022/02/09 20:14:11;;;;;;;8.13;3.15;;;5.30;91.50;;;;;;5051980;28;20021;-82
2022/02/09 20:16:38;;;;;;;5.50;3.05;;;5.30;91.40;;;;;;5032228;28;20021;-83
2022/02/09 20:19:04;;;;;;;6.10;3.28;;;5.20;91.50;;;;;;5041694;28;20059;-84
2022/02/09 20:21:31;;;;;;;4.60;2.83;;;5.20;91.50;;;;;;5059901;28;20020;-84
2022/02/09 20:23:57;;;;;;;7.53;3.13;;;5.10;91.60;;;;;;5076664;28;20117;-84
2022/02/09 20:26:25;;;;;;;5.95;3.35;;;5.00;91.70;;;;;;5067437;28;20059;-83
2022/02/09 20:28:57;;;;;;;5.25;3.22;;;5.00;91.90;;;;;;5060275;28;20029;-84
2022/02/09 20:31:29;;;;;;;6.80;3.83;;;5.00;91.90;;;;;;5061016;28;20477;-83
2022/02/09 20:34:00;;;;;;;6.57;3.35;;;4.90;92.00;;;;;;5077725;28;20025;-81
2022/02/09 20:36:27;;;;;;;5.68;3.03;;;4.90;91.90;;;;;;5083709;28;20043;-83
2022/02/09 20:38:56;;;;;;;5.45;3.28;;;4.90;92.00;;;;;;5077857;28;20024;-83
2022/02/09 20:41:22;;;;;;;6.15;2.88;;;4.80;92.00;;;;;;5078135;28;20357;-82
2022/02/09 20:46:47;;;;;;;5.25;2.92;;;4.80;92.00;;;;;;5027744;28;20052;-81
2022/02/09 20:49:12;;;;;;;5.75;3.42;;;4.80;92.10;;;;;;5059925;28;20037;-83
2022/02/09 20:51:38;;;;;;;5.35;3.20;;;4.70;92.10;;;;;;5042209;28;20496;-83
2022/02/09 20:54:04;;;;;;;6.18;3.33;;;4.70;92.10;;;;;;5042107;28;20029;-81
2022/02/09 20:56:30;;;;;;;6.15;3.38;;;4.70;92.20;;;;;;5042974;28;20021;-83
2022/02/09 20:59:01;;;;;;;4.95;2.80;;;4.70;92.20;;;;;;5060668;28;20056;-84
2022/02/09 21:01:35;;;;;;;4.38;2.75;;;4.70;92.20;;;;;;5060084;28;20021;-83
2022/02/09 21:04:05;;;;;;;4.75;2.80;;;4.60;92.20;;;;;;5061459;28;20029;-82
2022/02/09 21:06:50;;;;;;;6.22;3.00;;;4.60;92.30;;;;;;5080043;28;20035;-82
2022/02/09 21:17:23;;;;;;;4.38;2.97;;;4.50;92.60;;;;;;5080478;28;20074;-81
2022/02/09 22:22:03;;;;;;;2.72;1.85;;;3.80;92.10;;;;;;5095402;28;20020;-80
2022/02/09 22:25:41;;;;;;;3.28;1.73;;;3.80;92.00;;;;;;5095286;28;20035;-81
2022/02/09 22:46:47;;;;;;;1.77;1.30;;;3.60;92.10;;;;;;5082488;28;20105;-83
2022/02/09 22:49:16;;;;;;;3.28;1.80;;;3.60;92.20;;;;;;5080920;28;20047;-82
2022/02/09 22:54:41;;;;;;;2.65;1.58;;;3.50;92.20;;;;;;5081769;28;20363;-83
2022/02/09 22:57:08;;;;;;;2.60;1.73;;;3.50;92.30;;;;;;5081247;28;20023;-81
2022/02/09 22:59:56;;;;;;;4.65;1.80;;;3.50;92.30;;;;;;5083341;28;20028;-82
2022/02/09 23:02:27;;;;;;;3.05;1.50;;;3.50;92.30;;;;;;5064601;28;20025;-83
2022/02/09 23:05:16;;;;;;;3.20;1.80;;;3.50;92.30;;;;;;5059603;28;20032;-81
2022/02/09 23:10:25;;;;;;;4.53;2.10;;;3.50;92.40;;;;;;5088281;28;20104;-82
2022/02/09 23:13:40;;;;;;;3.55;2.35;;;3.40;92.40;;;;;;5072696;28;20035;-82
2022/02/09 23:15:57;;;;;;;3.97;1.60;;;3.40;92.40;;;;;;5071278;28;20028;-82
2022/02/09 23:21:32;;;;;;;4.35;1.95;;;3.40;92.60;;;;;;5079551;28;20017;-82
2022/02/09 23:24:51;;;;;;;3.85;2.15;;;3.40;92.40;;;;;;5057779;28;20086;-82
